SLAS/ASC METAR and TAF weather

Enter ICAO airport designator
Station Type Date Time Source
SLAS METAR 2019/08/10 23:00 UTC NOAA

SLAS 102300Z 00000KT 9999 NSC 21/12 Q1018


Station Type Date Time Source
SLAS Decoded METAR 2019/08/10 23:00 UTC NOAA

Ascencion De Guarayos, Bolivia (SLAS) 15-43S 063-06W
Aug 10, 2019 - 07:00 PM EDT / 2019.08.10 2300 UTC
Wind: Calm:0
Visibility: greater than 7 mile(s):0
Temperature: 69 F (21 C)
Dew Point: 53 F (12 C)
Relative Humidity: 56%
Pressure (altimeter): 30.06 in. Hg (1018 hPa)
ob: SLAS 102300Z 00000KT 9999 NSC 21/12 Q1018
cycle: 23

Station Type Date Time Source
SLAS TAF UTC NOAA

Error!

Example: see airport list